Time;durP1;ratioP1;P1;durP2;ratioP2;P2;SDS_P1;SDS_P2;PMS_P1;PMS_P2;Temp;Humidity;BMP_temperature;BMP_pressure;BME280_temperature;BME280_humidity;BME280_pressure;Samples;Min_cycle;Max_cycle;Signal;HPM_P1;HPM_P2
2023/07/05 00:07:02;;;;;;;37.20;20.90;;;14.40;99.90;;;;;;21011401;28;20071;-51
2023/07/05 00:17:03;;;;;;;28.50;17.75;;;14.40;99.90;;;;;;21009244;28;20068;-48
2023/07/05 00:27:06;;;;;;;24.25;16.30;;;14.40;99.90;;;;;;21014315;28;20067;-45
2023/07/05 00:37:08;;;;;;;29.65;19.73;;;14.50;99.90;;;;;;21012956;28;20120;-48
2023/07/05 00:47:26;;;;;;;26.35;18.15;;;14.50;99.90;;;;;;20996912;28;20088;-52
2023/07/05 00:57:31;;;;;;;13.43;10.20;;;14.50;99.90;;;;;;21017349;28;20492;-52
2023/07/05 01:07:33;;;;;;;16.27;11.95;;;14.50;99.90;;;;;;21007597;28;20067;-52
2023/07/05 01:17:56;;;;;;;21.58;15.23;;;14.50;99.90;;;;;;21013687;28;20469;-44
2023/07/05 01:28:04;;;;;;;14.45;9.07;;;14.30;99.90;;;;;;21000320;28;20063;-48
2023/07/05 01:38:06;;;;;;;10.23;5.82;;;14.20;99.90;;;;;;21016054;28;20589;-46
2023/07/05 01:48:27;;;;;;;1.90;1.33;;;14.00;99.90;;;;;;21011675;28;20083;-49
2023/07/05 01:58:36;;;;;;;3.47;1.92;;;13.40;99.90;;;;;;21019574;28;20196;-46
2023/07/05 02:08:44;;;;;;;4.90;1.40;;;13.10;99.90;;;;;;20989351;28;20072;-45
2023/07/05 02:18:45;;;;;;;6.05;4.10;;;12.60;99.90;;;;;;20986473;28;20131;-46
2023/07/05 02:28:47;;;;;;;5.13;3.55;;;12.50;99.90;;;;;;20989990;28;20068;-49
2023/07/05 02:38:52;;;;;;;5.90;1.42;;;12.40;99.90;;;;;;20995006;28;20112;-46
2023/07/05 02:48:57;;;;;;;2.80;1.70;;;12.30;99.90;;;;;;20924463;28;20098;-44
2023/07/05 02:58:59;;;;;;;1.27;1.10;;;12.10;99.90;;;;;;20962485;28;20111;-51
2023/07/05 03:09:01;;;;;;;2.08;1.00;;;12.10;99.90;;;;;;21001844;28;20059;-49
2023/07/05 03:19:02;;;;;;;2.80;1.48;;;12.00;99.90;;;;;;20997137;28;20064;-46
2023/07/05 03:29:04;;;;;;;3.10;1.90;;;11.90;99.90;;;;;;21005401;28;20068;-52
2023/07/05 03:39:06;;;;;;;3.50;1.90;;;11.90;99.90;;;;;;20954551;28;20406;-48
2023/07/05 03:49:08;;;;;;;3.90;2.38;;;11.90;99.90;;;;;;20901027;28;20080;-48
2023/07/05 03:59:10;;;;;;;3.22;2.20;;;11.80;99.90;;;;;;20901003;28;20068;-47
2023/07/05 04:09:12;;;;;;;2.38;2.03;;;11.80;99.90;;;;;;20887957;28;20080;-48
2023/07/05 04:19:15;;;;;;;3.55;1.30;;;11.80;99.90;;;;;;20887395;28;20068;-46
2023/07/05 04:29:17;;;;;;;1.30;0.90;;;11.70;99.90;;;;;;20895118;28;20539;-51
2023/07/05 04:39:19;;;;;;;3.92;0.95;;;12.00;99.90;;;;;;20887987;28;20064;-48
2023/07/05 04:49:20;;;;;;;1.35;0.95;;;12.20;99.90;;;;;;20897346;28;20541;-48
2023/07/05 04:59:22;;;;;;;1.80;1.20;;;12.10;99.90;;;;;;20904294;28;20095;-51
2023/07/05 05:09:24;;;;;;;2.47;0.90;;;12.60;99.90;;;;;;20906806;28;20447;-52
2023/07/05 05:19:26;;;;;;;2.17;1.30;;;12.60;99.90;;;;;;20911447;28;20067;-48
2023/07/05 05:29:29;;;;;;;2.47;1.10;;;12.50;99.90;;;;;;20923719;28;20117;-50
2023/07/05 05:39:34;;;;;;;1.10;0.93;;;12.90;99.90;;;;;;20929058;28;20110;-51
2023/07/05 05:49:35;;;;;;;0.98;0.70;;;13.10;99.90;;;;;;20931105;28;20570;-52
2023/07/05 05:59:37;;;;;;;1.00;0.80;;;13.30;99.90;;;;;;20898701;28;20119;-45
2023/07/05 06:09:49;;;;;;;1.40;0.70;;;13.30;99.90;;;;;;20901311;28;20072;-46
2023/07/05 06:19:52;;;;;;;0.93;0.50;;;13.40;99.90;;;;;;20910340;28;20060;-52
2023/07/05 06:29:54;;;;;;;0.80;0.68;;;16.50;99.90;;;;;;20915515;28;20072;-54
2023/07/05 06:39:55;;;;;;;2.60;0.73;;;19.50;99.90;;;;;;20913739;28;20191;-51
2023/07/05 06:49:57;;;;;;;0.95;0.70;;;20.50;99.90;;;;;;20967634;28;20087;-50
2023/07/05 06:59:59;;;;;;;1.17;0.50;;;18.40;99.90;;;;;;21011078;28;20071;-50
2023/07/05 07:10:01;;;;;;;1.17;0.75;;;18.80;99.90;;;;;;20975139;28;20097;-46
2023/07/05 07:20:04;;;;;;;2.55;0.52;;;20.80;99.90;;;;;;20956140;28;20056;-48
2023/07/05 07:30:06;;;;;;;1.13;0.77;;;20.70;99.90;;;;;;20971450;28;20167;-46
2023/07/05 07:40:08;;;;;;;2.20;0.80;;;21.80;99.90;;;;;;20974006;28;20068;-55
2023/07/05 07:50:13;;;;;;;1.40;0.95;;;23.70;99.10;;;;;;20995117;28;20083;-57
2023/07/05 08:00:15;;;;;;;2.17;0.88;;;25.50;97.90;;;;;;20994685;28;20121;-57
2023/07/05 08:10:16;;;;;;;1.85;0.95;;;26.00;99.10;;;;;;20993064;28;20098;-57
2023/07/05 08:20:18;;;;;;;1.13;0.93;;;26.20;96.10;;;;;;20984836;28;20523;-57
2023/07/05 08:30:20;;;;;;;1.50;1.08;;;26.20;97.70;;;;;;20994557;28;20075;-57
2023/07/05 08:40:25;;;;;;;1.75;0.98;;;26.30;96.90;;;;;;21003557;28;20075;-49
2023/07/05 08:50:29;;;;;;;2.97;0.95;;;26.50;96.00;;;;;;21006174;28;20068;-57
2023/07/05 09:00:46;;;;;;;1.05;0.88;;;26.40;98.60;;;;;;20973180;28;20083;-57
2023/07/05 09:10:55;;;;;;;1.50;1.00;;;26.20;97.70;;;;;;20987904;28;20521;-58
2023/07/05 09:21:10;;;;;;;1.98;1.42;;;26.10;97.60;;;;;;20999258;28;20068;-48
2023/07/05 09:31:14;;;;;;;3.50;1.40;;;26.20;99.60;;;;;;20999779;28;20072;-58
2023/07/05 09:41:46;;;;;;;1.70;1.50;;;25.70;99.90;;;;;;21004536;28;20121;-56
2023/07/05 09:51:48;;;;;;;2.50;1.90;;;25.20;99.90;;;;;;21015225;28;20087;-45
2023/07/05 10:01:53;;;;;;;2.28;1.85;;;25.80;99.90;;;;;;21015202;28;20593;-53
2023/07/05 10:11:59;;;;;;;2.70;2.00;;;25.30;99.90;;;;;;21019329;28;20437;-54
2023/07/05 10:22:15;;;;;;;3.45;2.47;;;24.70;99.90;;;;;;21009633;28;20079;-55
2023/07/05 10:32:19;;;;;;;2.25;2.03;;;23.30;99.90;;;;;;20985357;28;20634;-52
2023/07/05 10:42:21;;;;;;;3.20;2.42;;;22.90;99.90;;;;;;20988539;28;20080;-56
2023/07/05 10:52:25;;;;;;;4.88;3.10;;;23.30;99.90;;;;;;20990429;28;20127;-55
2023/07/05 11:02:32;;;;;;;3.88;3.35;;;25.10;99.90;;;;;;20991348;28;20084;-47
2023/07/05 11:12:33;;;;;;;3.80;3.05;;;25.90;99.90;;;;;;20991259;28;20139;-49
2023/07/05 11:22:43;;;;;;;3.22;2.70;;;26.50;99.90;;;;;;20999423;28;20068;-56
2023/07/05 11:33:03;;;;;;;3.35;2.92;;;27.10;99.90;;;;;;21005593;28;20517;-56
2023/07/05 11:43:42;;;;;;;8.82;5.18;;;26.90;99.90;;;;;;21006242;28;20465;-45
2023/07/05 11:53:45;;;;;;;6.50;5.63;;;26.50;99.90;;;;;;21010339;28;20442;-53
2023/07/05 12:03:52;;;;;;;7.25;5.53;;;26.00;99.90;;;;;;20975542;28;20080;-52
2023/07/05 12:14:00;;;;;;;5.47;4.15;;;26.00;99.90;;;;;;20980313;28;20068;-53
2023/07/05 12:24:07;;;;;;;8.00;4.78;;;26.40;99.80;;;;;;20979357;28;20072;-52
2023/07/05 12:34:19;;;;;;;8.32;5.03;;;26.00;99.70;;;;;;21001335;28;20068;-54
2023/07/05 12:44:23;;;;;;;6.25;5.13;;;24.30;99.90;;;;;;21005457;28;20125;-48
2023/07/05 12:54:26;;;;;;;4.60;3.78;;;23.10;99.90;;;;;;21010932;28;20487;-51
2023/07/05 13:04:28;;;;;;;4.55;3.00;;;22.80;99.90;;;;;;21002081;28;20125;-52
2023/07/05 13:14:32;;;;;;;5.15;3.63;;;23.00;99.90;;;;;;21013925;28;20144;-53
2023/07/05 13:24:35;;;;;;;3.30;3.00;;;23.70;99.90;;;;;;21003775;28;20094;-51
2023/07/05 13:34:37;;;;;;;6.47;3.50;;;24.30;99.90;;;;;;20990115;28;20064;-48
2023/07/05 13:44:40;;;;;;;8.45;4.15;;;22.80;99.90;;;;;;20991059;28;20516;-50
2023/07/05 13:54:45;;;;;;;4.75;3.80;;;21.90;99.90;;;;;;20995632;28;20126;-49
2023/07/05 14:04:47;;;;;;;5.03;3.33;;;22.30;99.90;;;;;;20998221;28;20131;-56
2023/07/05 14:14:50;;;;;;;2.72;2.42;;;23.70;99.90;;;;;;21006995;28;20060;-53
2023/07/05 14:24:52;;;;;;;3.03;2.72;;;24.80;99.90;;;;;;21002824;28;20104;-51
2023/07/05 14:34:54;;;;;;;3.13;2.83;;;25.60;99.90;;;;;;21017202;28;20131;-53
2023/07/05 14:44:55;;;;;;;3.55;2.40;;;26.10;99.50;;;;;;21026298;28;20129;-50
2023/07/05 14:54:57;;;;;;;4.35;3.75;;;25.20;99.90;;;;;;21054224;28;20184;-48
2023/07/05 15:04:58;;;;;;;4.38;3.75;;;23.70;99.90;;;;;;21052791;28;20067;-53
2023/07/05 15:15:00;;;;;;;4.45;3.88;;;22.40;99.90;;;;;;21049021;28;20075;-48
2023/07/05 15:25:02;;;;;;;5.47;4.32;;;21.70;99.90;;;;;;21047135;28;20118;-47
2023/07/05 15:35:06;;;;;;;6.65;5.63;;;21.40;99.90;;;;;;21046712;28;20071;-50
2023/07/05 15:45:09;;;;;;;6.72;5.45;;;21.10;99.90;;;;;;21039259;28;20578;-53
2023/07/05 15:55:12;;;;;;;6.60;5.20;;;20.80;99.90;;;;;;21009543;28;20132;-51
2023/07/05 16:05:15;;;;;;;6.85;5.40;;;20.60;99.90;;;;;;20993643;28;20128;-51
2023/07/05 16:15:17;;;;;;;6.45;5.20;;;20.80;99.90;;;;;;21031217;28;20527;-50
2023/07/05 16:25:19;;;;;;;6.55;5.28;;;20.90;99.90;;;;;;21022791;28;20067;-50
2023/07/05 16:35:21;;;;;;;8.45;6.13;;;20.70;99.90;;;;;;21011426;28;20090;-52
2023/07/05 16:45:23;;;;;;;7.03;6.30;;;20.00;99.90;;;;;;20982691;28;20174;-50
2023/07/05 16:55:25;;;;;;;11.93;7.30;;;19.40;99.90;;;;;;20998642;28;20473;-49
2023/07/05 17:05:27;;;;;;;8.73;7.10;;;19.10;99.90;;;;;;21003821;28;20526;-51
2023/07/05 17:15:28;;;;;;;9.98;7.13;;;19.10;99.90;;;;;;21005936;28;20072;-51
2023/07/05 17:25:32;;;;;;;10.25;8.43;;;19.10;99.90;;;;;;21030149;28;20070;-44
2023/07/05 17:35:34;;;;;;;9.82;7.85;;;18.70;99.90;;;;;;21014682;28;20159;-49
2023/07/05 17:45:36;;;;;;;9.45;7.13;;;18.10;99.90;;;;;;21008814;28;20091;-44
2023/07/05 17:55:37;;;;;;;9.73;6.05;;;17.50;99.90;;;;;;21031309;28;20110;-48
2023/07/05 18:05:40;;;;;;;6.43;3.75;;;16.80;99.90;;;;;;21036758;28;20067;-45
2023/07/05 18:15:43;;;;;;;5.63;3.50;;;16.60;99.90;;;;;;21015165;28;20173;-50
2023/07/05 18:25:44;;;;;;;8.05;5.45;;;16.70;99.90;;;;;;21011663;28;20118;-48
2023/07/05 18:35:48;;;;;;;9.88;6.97;;;16.70;99.90;;;;;;21016737;28;20081;-51
2023/07/05 18:45:55;;;;;;;9.57;7.50;;;16.50;99.90;;;;;;21009529;28;20080;-48
2023/07/05 18:55:59;;;;;;;10.98;3.50;;;16.50;99.90;;;;;;21028800;28;20067;-49
2023/07/05 19:06:04;;;;;;;6.13;2.90;;;16.80;99.90;;;;;;21005243;28;20214;-48
2023/07/05 19:16:08;;;;;;;5.80;3.50;;;17.20;99.90;;;;;;21034995;28;20433;-47
2023/07/05 19:26:13;;;;;;;8.60;5.18;;;17.40;99.90;;;;;;21043511;28;20093;-48
2023/07/05 19:36:18;;;;;;;6.50;3.67;;;16.80;99.90;;;;;;21030523;28;20123;-49
2023/07/05 19:46:24;;;;;;;11.73;4.97;;;16.30;99.90;;;;;;20999421;28;20127;-49
2023/07/05 19:56:26;;;;;;;6.63;4.15;;;15.70;99.90;;;;;;21015739;28;20071;-51
2023/07/05 20:06:28;;;;;;;6.45;3.60;;;15.30;99.90;;;;;;21001008;28;20500;-50
2023/07/05 20:16:29;;;;;;;8.07;2.97;;;15.20;99.90;;;;;;21010930;28;20072;-48
2023/07/05 20:26:32;;;;;;;5.03;3.50;;;15.30;99.90;;;;;;21015397;28;20067;-50
2023/07/05 20:36:35;;;;;;;8.20;5.05;;;15.50;99.90;;;;;;21019245;28;20154;-51
2023/07/05 20:46:37;;;;;;;7.38;4.57;;;15.60;99.90;;;;;;21022912;28;20079;-49
2023/07/05 20:56:39;;;;;;;8.23;3.70;;;15.50;99.90;;;;;;21030797;28;20068;-46
2023/07/05 21:06:42;;;;;;;6.07;3.40;;;15.00;99.90;;;;;;21056487;28;20064;-49
2023/07/05 21:16:46;;;;;;;9.48;5.88;;;14.50;99.90;;;;;;21004517;28;20068;-48
2023/07/05 21:26:47;;;;;;;11.88;6.97;;;14.50;99.90;;;;;;21007506;28;20076;-47
2023/07/05 21:36:51;;;;;;;9.38;6.20;;;14.70;99.90;;;;;;21012570;28;20121;-49
2023/07/05 21:46:55;;;;;;;11.25;6.05;;;14.50;99.90;;;;;;21030386;28;20088;-49
2023/07/05 21:56:56;;;;;;;7.13;4.85;;;14.60;99.90;;;;;;21028737;28;20076;-46
2023/07/05 22:07:00;;;;;;;4.28;2.03;;;14.50;99.90;;;;;;21038423;28;20542;-48
2023/07/05 22:17:03;;;;;;;3.60;1.00;;;14.40;99.90;;;;;;21030591;28;20068;-43
2023/07/05 22:27:05;;;;;;;0.73;0.60;;;14.40;99.90;;;;;;21042149;28;20052;-48
2023/07/05 22:37:07;;;;;;;2.20;0.63;;;14.30;99.90;;;;;;21028017;28;20592;-50
2023/07/05 22:47:10;;;;;;;1.33;0.60;;;14.20;99.90;;;;;;21002688;28;20545;-49
2023/07/05 22:57:14;;;;;;;1.70;0.73;;;14.10;99.90;;;;;;20992778;28;20068;-50
2023/07/05 23:07:16;;;;;;;0.47;0.32;;;14.10;99.90;;;;;;21012068;28;20578;-48
2023/07/05 23:17:17;;;;;;;1.38;0.60;;;14.20;99.90;;;;;;21006303;28;20540;-48
2023/07/05 23:27:19;;;;;;;1.50;0.50;;;13.90;99.90;;;;;;21014538;28;20068;-49
2023/07/05 23:37:21;;;;;;;1.00;0.50;;;14.00;99.90;;;;;;21007337;28;20071;-50
2023/07/05 23:47:23;;;;;;;0.68;0.47;;;13.90;99.90;;;;;;21020798;28;20076;-43
2023/07/05 23:57:28;;;;;;;1.13;0.50;;;13.70;99.90;;;;;;21023279;28;20531;-49
